Time,TemperatureF,DewpointF,PressureIn,WindDirection,WindDirectionDegrees,WindSpeedMPH,WindSpeedGustMPH,Humidity,HourlyPrecipIn,Conditions,Clouds,dailyrainin,SolarRadiationWatts/m^2,SoftwareType,DateUTC
2013-03-17 00:02:00,50.0,30.0,-100.00,NW,314,16.0,28.0,46,0.00,,,0.00,0.000000,,2013-03-17 07:02:00,
2013-03-17 00:12:00,50.0,30.0,-100.00,NW,314,16.0,28.0,46,0.00,,,0.00,0.000000,,2013-03-17 07:12:00,
2013-03-17 00:22:00,50.0,30.0,-100.00,NW,314,16.0,28.0,46,0.00,,,0.00,0.000000,,2013-03-17 07:22:00,
2013-03-17 00:52:00,51.0,33.0,-100.00,WNW,303,16.0,31.0,49,0.00,,,0.00,0.000000,,2013-03-17 07:52:00,
2013-03-17 01:02:00,51.0,33.0,-100.00,WNW,303,16.0,31.0,49,0.00,,,0.00,0.000000,,2013-03-17 08:02:00,
2013-03-17 01:12:00,51.0,33.0,-100.00,WNW,303,16.0,31.0,49,0.00,,,0.00,0.000000,,2013-03-17 08:12:00,
2013-03-17 01:22:00,51.0,33.0,-100.00,WNW,303,16.0,31.0,49,0.00,,,0.00,0.000000,,2013-03-17 08:22:00,
2013-03-17 01:52:00,49.0,27.0,-100.00,NW,316,12.0,26.0,43,0.00,,,0.00,0.000000,,2013-03-17 08:52:00,
2013-03-17 02:02:00,49.0,27.0,-100.00,NW,316,12.0,26.0,43,0.00,,,0.00,0.000000,,2013-03-17 09:02:00,
2013-03-17 02:12:00,49.0,27.0,-100.00,NW,316,12.0,26.0,43,0.00,,,0.00,0.000000,,2013-03-17 09:12:00,
2013-03-17 02:22:00,49.0,27.0,-100.00,NW,316,12.0,26.0,43,0.00,,,0.00,0.000000,,2013-03-17 09:22:00,
2013-03-17 02:53:00,45.0,26.0,-100.00,NW,322,9.0,20.0,47,0.00,,,0.00,0.000000,,2013-03-17 09:53:00,
2013-03-17 03:03:00,45.0,26.0,-100.00,NW,322,9.0,20.0,47,0.00,,,0.00,0.000000,,2013-03-17 10:03:00,
2013-03-17 03:12:00,45.0,26.0,-100.00,NW,322,9.0,20.0,47,0.00,,,0.00,0.000000,,2013-03-17 10:12:00,
2013-03-17 03:23:00,45.0,26.0,-100.00,NW,322,9.0,20.0,47,0.00,,,0.00,0.000000,,2013-03-17 10:23:00,
2013-03-17 03:52:00,44.0,28.0,-100.00,NW,308,9.0,17.0,52,0.00,,,0.00,0.000000,,2013-03-17 10:52:00,
2013-03-17 04:02:00,44.0,28.0,-100.00,NW,308,9.0,17.0,52,0.00,,,0.00,0.000000,,2013-03-17 11:02:00,
2013-03-17 04:52:00,42.0,27.0,-100.00,WNW,291,9.0,16.0,54,0.00,,,-99.99,0.000000,,2013-03-17 11:52:00,
2013-03-17 05:52:00,41.0,27.0,-100.00,WNW,299,6.0,14.0,57,0.00,,,0.00,0.000000,,2013-03-17 12:52:00,
2013-03-17 06:52:00,39.0,26.0,-100.00,WNW,295,6.0,11.0,60,-99.99,,,0.00,0.000000,,2013-03-17 13:52:00,
2013-03-17 07:52:00,39.0,27.0,-100.00,WNW,300,6.0,9.0,62,0.00,,,0.00,4.000000,,2013-03-17 14:52:00,
2013-03-17 08:53:00,49.0,29.0,-100.00,WNW,294,6.0,9.0,46,-99.99,,,0.00,32.000000,,2013-03-17 15:53:00,
2013-03-17 09:12:00,49.0,29.0,-100.00,WNW,294,6.0,9.0,46,-99.99,,,0.00,32.000000,,2013-03-17 16:12:00,
2013-03-17 09:22:00,49.0,29.0,-100.00,WNW,294,6.0,9.0,46,-99.99,,,0.00,32.000000,,2013-03-17 16:22:00,
2013-03-17 09:52:00,54.0,30.0,-100.00,WNW,299,9.0,14.0,39,0.00,,,0.00,347.000000,,2013-03-17 16:52:00,
2013-03-17 10:02:00,54.0,30.0,-100.00,WNW,299,9.0,14.0,39,0.00,,,0.00,347.000000,,2013-03-17 17:02:00,
2013-03-17 10:12:00,54.0,30.0,-100.00,WNW,299,9.0,14.0,39,0.00,,,0.00,347.000000,,2013-03-17 17:12:00,
2013-03-17 10:22:00,54.0,30.0,-100.00,WNW,299,9.0,14.0,39,0.00,,,0.00,347.000000,,2013-03-17 17:22:00,
2013-03-17 10:53:00,56.0,27.0,-100.00,NW,325,7.0,16.0,33,0.00,,,0.00,583.000000,,2013-03-17 17:53:00,
2013-03-17 11:02:00,56.0,27.0,-100.00,NW,325,7.0,16.0,33,0.00,,,0.00,583.000000,,2013-03-17 18:02:00,
2013-03-17 11:12:00,56.0,27.0,-100.00,NW,325,7.0,16.0,33,0.00,,,0.00,583.000000,,2013-03-17 18:12:00,
2013-03-17 11:22:00,56.0,27.0,-100.00,NW,325,7.0,16.0,33,0.00,,,0.00,583.000000,,2013-03-17 18:22:00,
2013-03-17 11:52:00,59.0,26.0,-100.00,NNE,15,7.0,14.0,28,0.00,,,0.00,802.000000,,2013-03-17 18:52:00,
2013-03-17 12:02:00,59.0,26.0,-100.00,NNE,15,7.0,14.0,28,0.00,,,0.00,802.000000,,2013-03-17 19:02:00,
2013-03-17 12:12:00,59.0,26.0,-100.00,NNE,15,7.0,14.0,28,0.00,,,0.00,802.000000,,2013-03-17 19:12:00,
2013-03-17 12:22:00,59.0,26.0,-100.00,NNE,15,7.0,14.0,28,0.00,,,0.00,802.000000,,2013-03-17 19:22:00,
2013-03-17 12:53:00,65.0,27.0,-100.00,NW,317,7.0,16.0,24,0.00,,,0.00,949.000000,,2013-03-17 19:53:00,
2013-03-17 13:52:00,67.0,27.0,-100.00,West,269,9.0,18.0,22,0.00,,,0.00,992.000000,,2013-03-17 20:52:00,
2013-03-17 14:12:00,67.0,27.0,-100.00,West,269,9.0,18.0,22,0.00,,,0.00,992.000000,,2013-03-17 21:12:00,
2013-03-17 14:22:00,67.0,27.0,-100.00,West,269,9.0,18.0,22,0.00,,,0.00,992.000000,,2013-03-17 21:22:00,
2013-03-17 14:52:00,69.0,27.0,-100.00,NNW,330,7.0,17.0,21,0.00,,,0.00,970.000000,,2013-03-17 21:52:00,
2013-03-17 15:03:00,69.0,27.0,-100.00,NNW,330,7.0,17.0,21,0.00,,,0.00,970.000000,,2013-03-17 22:03:00,
2013-03-17 15:12:00,69.0,27.0,-100.00,NNW,330,7.0,17.0,21,0.00,,,0.00,970.000000,,2013-03-17 22:12:00,
2013-03-17 15:22:00,69.0,27.0,-100.00,NNW,330,7.0,17.0,21,0.00,,,0.00,970.000000,,2013-03-17 22:22:00,
2013-03-17 15:53:00,70.0,17.0,-100.00,WSW,254,10.0,21.0,13,0.00,,,0.00,896.000000,,2013-03-17 22:53:00,
2013-03-17 16:02:00,70.0,17.0,-100.00,WSW,254,10.0,21.0,13,0.00,,,0.00,896.000000,,2013-03-17 23:02:00,
2013-03-17 16:12:00,70.0,17.0,-100.00,WSW,254,10.0,21.0,13,0.00,,,0.00,896.000000,,2013-03-17 23:12:00,
2013-03-17 16:22:00,70.0,17.0,-100.00,WSW,254,10.0,21.0,13,0.00,,,0.00,896.000000,,2013-03-17 23:22:00,
2013-03-17 16:52:00,65.0,25.0,-100.00,WNW,299,14.0,28.0,22,0.00,,,0.00,717.000000,,2013-03-17 23:52:00,
2013-03-17 17:03:00,65.0,25.0,-100.00,WNW,299,14.0,28.0,22,0.00,,,0.00,717.000000,,2013-03-18 00:03:00,
2013-03-17 17:11:00,65.0,25.0,-100.00,WNW,299,14.0,28.0,22,0.00,,,0.00,717.000000,,2013-03-18 00:11:00,
2013-03-17 17:21:00,65.0,25.0,-100.00,WNW,299,14.0,28.0,22,0.00,,,0.00,717.000000,,2013-03-18 00:21:00,
2013-03-17 17:52:00,61.0,24.0,-100.00,North,359,14.0,29.0,24,0.00,,,0.00,495.000000,,2013-03-18 00:52:00,
2013-03-17 18:01:00,61.0,24.0,-100.00,North,359,14.0,29.0,24,0.00,,,0.00,495.000000,,2013-03-18 01:01:00,
2013-03-17 18:12:00,61.0,24.0,-100.00,North,359,14.0,29.0,24,0.00,,,0.00,495.000000,,2013-03-18 01:12:00,
2013-03-17 18:22:00,61.0,24.0,-100.00,North,359,14.0,29.0,24,0.00,,,0.00,495.000000,,2013-03-18 01:22:00,
2013-03-17 18:52:00,54.0,24.0,-100.00,WNW,300,11.0,30.0,31,0.00,,,0.00,194.000000,,2013-03-18 01:52:00,
2013-03-17 19:02:00,54.0,24.0,-100.00,WNW,300,11.0,30.0,31,0.00,,,0.00,194.000000,,2013-03-18 02:02:00,
2013-03-17 19:12:00,54.0,24.0,-100.00,WNW,300,11.0,30.0,31,0.00,,,0.00,194.000000,,2013-03-18 02:12:00,
2013-03-17 19:22:00,54.0,24.0,-100.00,WNW,300,11.0,30.0,31,0.00,,,0.00,194.000000,,2013-03-18 02:22:00,
2013-03-17 19:52:00,50.0,25.0,-100.00,West,263,8.0,19.0,38,0.00,,,0.00,10.000000,,2013-03-18 02:52:00,
2013-03-17 20:02:00,50.0,25.0,-100.00,West,263,8.0,19.0,38,0.00,,,0.00,10.000000,,2013-03-18 03:02:00,
2013-03-17 20:11:00,50.0,25.0,-100.00,West,263,8.0,19.0,38,0.00,,,0.00,10.000000,,2013-03-18 03:11:00,
2013-03-17 20:22:00,50.0,25.0,-100.00,West,263,8.0,19.0,38,0.00,,,0.00,10.000000,,2013-03-18 03:22:00,
2013-03-17 20:53:00,47.0,24.0,-100.00,WNW,298,8.0,18.0,40,0.00,,,0.00,0.000000,,2013-03-18 03:53:00,
2013-03-17 21:02:00,47.0,24.0,-100.00,WNW,298,8.0,18.0,40,0.00,,,0.00,0.000000,,2013-03-18 04:02:00,
2013-03-17 21:52:00,45.0,27.0,-100.00,NW,311,8.0,13.0,50,0.00,,,0.00,0.000000,,2013-03-18 04:52:00,
2013-03-17 22:02:00,45.0,27.0,-100.00,NW,311,8.0,13.0,50,0.00,,,0.00,0.000000,,2013-03-18 05:02:00,
2013-03-17 22:12:00,45.0,27.0,-100.00,NW,311,8.0,13.0,50,0.00,,,0.00,0.000000,,2013-03-18 05:12:00,
2013-03-17 22:22:00,45.0,27.0,-100.00,NW,311,8.0,13.0,50,0.00,,,0.00,0.000000,,2013-03-18 05:22:00,
2013-03-17 22:52:00,42.0,27.0,-100.00,NNW,329,8.0,14.0,54,0.00,,,0.00,0.000000,,2013-03-18 05:52:00,
2013-03-17 23:52:00,42.0,26.0,-100.00,NW,312,9.0,16.0,53,-99.99,,,-99.99,0.000000,,2013-03-18 06:52:00,